createdAt,value
2023-11-07T00:05:37.989Z,100
2023-11-07T00:21:21.045Z,100
2023-11-07T00:37:03.650Z,100
2023-11-07T00:52:46.023Z,100
2023-11-07T01:08:29.315Z,100
2023-11-07T01:24:11.697Z,100
2023-11-07T01:39:54.606Z,100
2023-11-07T01:55:36.990Z,100
2023-11-07T02:11:19.090Z,100
2023-11-07T02:27:01.818Z,100
2023-11-07T02:42:44.039Z,100
2023-11-07T02:58:26.700Z,100
2023-11-07T03:14:09.108Z,100
2023-11-07T03:29:51.457Z,100
2023-11-07T03:45:34.295Z,100
2023-11-07T04:01:17.024Z,100
2023-11-07T04:16:59.454Z,100
2023-11-07T04:32:42.238Z,100
2023-11-07T04:48:24.588Z,100
2023-11-07T05:04:06.355Z,100
2023-11-07T05:19:49.289Z,100
2023-11-07T05:35:32.231Z,100
2023-11-07T05:51:14.681Z,100
2023-11-07T06:06:56.919Z,100
2023-11-07T06:22:40.006Z,100
2023-11-07T06:38:22.590Z,100
2023-11-07T06:54:05.352Z,100
2023-11-07T07:09:48.191Z,100
2023-11-07T07:25:30.185Z,100
2023-11-07T07:41:12.717Z,100
2023-11-07T07:56:55.226Z,100
2023-11-07T08:12:37.602Z,100
2023-11-07T08:28:20.470Z,100
2023-11-07T08:44:03.175Z,97.99
2023-11-07T08:59:45.636Z,90.9
2023-11-07T09:15:28.643Z,86.93
2023-11-07T09:31:10.857Z,86.55
2023-11-07T09:46:53.368Z,87.07
2023-11-07T10:02:36.706Z,84.68
2023-11-07T10:18:19.368Z,81.9
2023-11-07T10:34:02.452Z,79.84
2023-11-07T10:49:45.471Z,78.28
2023-11-07T11:05:28.078Z,76.52
2023-11-07T11:21:10.896Z,74.66
2023-11-07T11:36:53.310Z,72.71
2023-11-07T11:37:40.853Z,72.28
2023-11-07T11:53:23.870Z,73.7
2023-11-07T12:09:05.742Z,72.73
2023-11-07T12:24:48.168Z,72.92
2023-11-07T12:40:30.807Z,67.62
2023-11-07T12:56:13.108Z,58.72
2023-11-07T13:11:55.684Z,51.53
2023-11-07T13:27:38.321Z,52.9
2023-11-07T13:43:20.586Z,56.17
2023-11-07T13:59:02.838Z,64.03
2023-11-07T14:14:45.147Z,69.26
2023-11-07T14:30:27.903Z,72.31
2023-11-07T14:46:10.466Z,75.44
2023-11-07T15:01:53.348Z,79.84
2023-11-07T15:17:36.247Z,82.59
2023-11-07T15:33:18.452Z,85.91
2023-11-07T15:49:00.645Z,90.81
2023-11-07T16:04:43.520Z,94.84
2023-11-07T16:20:26.040Z,100
2023-11-07T16:36:08.882Z,100
2023-11-07T16:51:51.749Z,100
2023-11-07T17:07:33.993Z,100
2023-11-07T17:23:16.726Z,100
2023-11-07T17:38:59.239Z,100
2023-11-07T17:54:42.277Z,100
2023-11-07T18:10:24.492Z,100
2023-11-07T18:26:06.661Z,100
2023-11-07T18:41:49.519Z,100
2023-11-07T18:57:31.834Z,100
2023-11-07T19:13:13.845Z,100
2023-11-07T19:28:56.872Z,100
2023-11-07T19:44:39.836Z,100
2023-11-07T20:00:22.415Z,100
2023-11-07T20:16:04.937Z,100
2023-11-07T20:31:47.808Z,100
2023-11-07T20:47:30.023Z,100
2023-11-07T21:03:12.320Z,100
2023-11-07T21:18:55.071Z,100
2023-11-07T21:34:37.708Z,100
2023-11-07T21:50:20.631Z,100
2023-11-07T22:06:03.033Z,100
2023-11-07T22:21:45.410Z,100
2023-11-07T22:37:27.582Z,100
2023-11-07T22:53:09.805Z,100
2023-11-07T23:08:52.299Z,100
2023-11-07T23:24:34.928Z,100
2023-11-07T23:40:17.510Z,100
2023-11-07T23:56:00.562Z,100
